Portland, Oregon
Traffic Map
Current Weather Conditions
Portland, Oregon
Broken Clouds
Broken Clouds
64°
Feels Like: 64°
Wind Chill: 64° Ceiling: 8500
Heat Index: 64° Visibility: 10mi
Dew Point: 59° Wind: 7mph
Humidity: 84% Direction: 180° (S)
Pressure: 30in Gusts: 0mph
Raw Report DataKPDX 231113Z 18006KT 10SM SCT022 BKN085 18/15 A3000 RMK AO2 T01780150
Traffic Incident Summary
Active as of:
Severity:
Category:
InformationThere was an issue retrieving the traffic information for this location. Please try a different location or try again shortly.
Advertisements
Track Severe Weather on mobile